Time;durP1;ratioP1;P1;durP2;ratioP2;P2;SDS_P1;SDS_P2;PMS_P1;PMS_P2;Temp;Humidity;BMP_temperature;BMP_pressure;BME280_temperature;BME280_humidity;BME280_pressure;Samples;Min_cycle;Max_cycle;Signal;HPM_P1;HPM_P2
2021/10/27 00:01:21;;;;;;;25.33;8.83;;;;;;;-145.69;100.00;73068.25;5156474;27;20245;-78
2021/10/27 00:03:47;;;;;;;24.20;8.87;;;;;;;-145.69;100.00;73078.22;5156287;27;20220;-79
2021/10/27 00:06:14;;;;;;;20.53;7.77;;;;;;;-145.69;100.00;73094.13;5156254;27;20523;-79
2021/10/27 00:08:40;;;;;;;23.37;8.30;;;;;;;-145.69;100.00;73094.13;5156395;27;20196;-78
2021/10/27 00:11:07;;;;;;;20.90;8.17;;;;;;;-145.69;100.00;73114.03;5156613;27;20260;-78
2021/10/27 00:13:33;;;;;;;26.20;7.53;;;;;;;-145.69;100.00;73122.00;5156740;27;20192;-78
2021/10/27 00:16:02;;;;;;;29.37;8.27;;;;;;;-145.69;100.00;73127.97;5156672;27;20199;-78
2021/10/27 00:18:29;;;;;;;26.80;6.43;;;;;;;-145.69;100.00;73153.84;5156391;27;20650;-78
2021/10/27 00:20:55;;;;;;;22.83;7.23;;;;;;;-145.69;100.00;73151.88;5156388;27;20204;-78
2021/10/27 00:23:22;;;;;;;21.70;7.63;;;;;;;-145.69;100.00;73151.88;5156292;27;20230;-78
2021/10/27 00:25:48;;;;;;;19.07;7.33;;;;;;;-145.69;100.00;73131.97;5156419;27;20252;-78
2021/10/27 00:28:14;;;;;;;23.80;7.60;;;;;;;-145.69;100.00;73133.94;5156310;27;20196;-79
2021/10/27 00:30:41;;;;;;;33.37;8.67;;;;;;;-145.69;100.00;73112.06;5155787;27;20731;-78
2021/10/27 00:33:09;;;;;;;34.00;8.73;;;;;;;-145.69;100.00;73110.06;5155762;27;20257;-78
2021/10/27 00:35:35;;;;;;;23.93;8.83;;;;;;;-145.69;100.00;73106.09;5155913;27;20197;-78
2021/10/27 00:38:01;;;;;;;20.73;7.83;;;;;;;-145.69;100.00;73116.03;5155988;27;20203;-78
2021/10/27 00:40:28;;;;;;;27.03;9.10;;;;;;;-145.69;100.00;73098.13;5155954;27;20200;-78
2021/10/27 00:42:54;;;;;;;29.43;9.33;;;;;;;-145.69;100.00;73090.16;5155926;27;20226;-78
2021/10/27 00:45:23;;;;;;;38.87;10.73;;;;;;;-145.69;100.00;73058.31;5155723;27;20248;-78
2021/10/27 00:47:49;;;;;;;33.83;9.33;;;;;;;-145.69;100.00;73100.09;5155617;27;20653;-78
2021/10/27 00:50:18;;;;;;;15.37;6.77;;;;;;;-145.69;100.00;73131.97;5155720;27;20203;-78
2021/10/27 00:52:44;;;;;;;18.60;6.23;;;;;;;-145.69;100.00;73155.84;5155415;27;20314;-79
2021/10/27 00:55:11;;;;;;;21.73;8.30;;;;;;;-145.69;100.00;73163.81;5154727;27;20917;-79
2021/10/27 00:57:38;;;;;;;18.77;6.87;;;;;;;-145.69;100.00;73159.84;5155520;27;20204;-79
2021/10/27 01:00:06;;;;;;;26.40;7.77;;;;;;;-145.69;100.00;73124.00;5155371;27;20278;-79
2021/10/27 01:02:34;;;;;;;34.50;9.50;;;;;;;-145.69;100.00;73110.06;5155500;27;20215;-79
2021/10/27 01:05:00;;;;;;;26.70;9.33;;;;;;;-145.69;100.00;73086.19;5155356;27;20196;-78
2021/10/27 01:07:28;;;;;;;26.37;9.23;;;;;;;-145.69;100.00;73098.13;5155444;27;20249;-79
2021/10/27 01:09:55;;;;;;;18.70;6.93;;;;;;;-145.69;100.00;73135.94;5155286;27;20208;-79
2021/10/27 01:12:22;;;;;;;17.57;7.07;;;;;;;-145.69;100.00;73149.88;5155269;27;20642;-79
2021/10/27 01:14:48;;;;;;;23.60;6.60;;;;;;;-145.69;100.00;73137.94;5155222;27;20199;-78
2021/10/27 01:17:18;;;;;;;30.27;8.60;;;;;;;-145.69;100.00;73122.00;5155216;27;20697;-78
2021/10/27 01:19:47;;;;;;;30.50;9.93;;;;;;;-145.69;100.00;73086.19;5155274;27;20203;-78
2021/10/27 01:22:14;;;;;;;37.13;10.70;;;;;;;-145.69;100.00;73086.19;5152693;27;20212;-79
2021/10/27 01:24:41;;;;;;;32.60;9.37;;;;;;;-145.69;100.00;73078.22;5154132;27;20188;-78
2021/10/27 01:27:07;;;;;;;31.37;8.67;;;;;;;-145.69;100.00;73088.16;5155009;27;20204;-78
2021/10/27 01:29:34;;;;;;;27.20;9.17;;;;;;;-145.69;100.00;73092.16;5154889;27;20251;-79
2021/10/27 01:32:01;;;;;;;37.00;9.10;;;;;;;-145.69;100.00;73074.22;5155081;27;20192;-79
2021/10/27 01:34:27;;;;;;;32.80;9.60;;;;;;;-145.69;100.00;73052.34;5155059;27;20604;-78
2021/10/27 01:36:55;;;;;;;32.30;9.67;;;;;;;-145.69;100.00;73054.31;5155019;27;20200;-78
2021/10/27 01:39:22;;;;;;;34.57;9.17;;;;;;;-145.69;100.00;73060.28;5155037;27;20200;-79
2021/10/27 01:41:49;;;;;;;22.57;8.03;;;;;;;-145.69;100.00;73070.25;5155345;27;20212;-79
2021/10/27 01:44:16;;;;;;;22.50;8.23;;;;;;;-145.69;100.00;73066.25;5155204;27;20246;-79
2021/10/27 01:46:44;;;;;;;28.90;9.07;;;;;;;-145.69;100.00;73066.25;5155061;27;20196;-79
2021/10/27 01:49:12;;;;;;;33.63;8.70;;;;;;;-145.69;100.00;73062.28;5154930;27;20195;-79
2021/10/27 01:51:40;;;;;;;24.77;8.40;;;;;;;-145.69;100.00;73078.22;5154636;27;20764;-79
2021/10/27 01:54:08;;;;;;;24.63;8.50;;;;;;;-145.69;100.00;73068.25;5154742;27;20199;-79
2021/10/27 01:56:35;;;;;;;26.87;8.80;;;;;;;-145.69;100.00;73060.28;5154736;27;20204;-79
2021/10/27 01:59:01;;;;;;;27.50;8.97;;;;;;;-145.69;100.00;73064.28;5154842;27;20203;-79
2021/10/27 02:01:28;;;;;;;29.80;10.03;;;;;;;-145.69;100.00;73060.28;5154906;27;20200;-79
2021/10/27 02:03:54;;;;;;;36.93;9.20;;;;;;;-145.69;100.00;73062.28;5154518;27;20574;-79
2021/10/27 02:06:20;;;;;;;33.47;9.90;;;;;;;-145.69;100.00;73070.25;5154870;27;20196;-80
2021/10/27 02:08:47;;;;;;;28.43;8.20;;;;;;;-145.69;100.00;73074.22;5154815;27;20203;-80
2021/10/27 02:11:15;;;;;;;25.63;8.00;;;;;;;-145.69;100.00;73074.22;5154682;27;20200;-79
2021/10/27 02:13:41;;;;;;;25.27;7.07;;;;;;;-145.69;100.00;73066.25;5154823;27;20199;-79
2021/10/27 02:16:08;;;;;;;26.60;7.57;;;;;;;-145.69;100.00;73080.19;5155469;27;20208;-79
2021/10/27 02:18:35;;;;;;;24.30;7.23;;;;;;;-145.69;100.00;73084.19;5158800;27;20326;-79
2021/10/27 02:21:01;;;;;;;27.37;7.70;;;;;;;-145.69;100.00;73064.28;5158585;27;20206;-79
2021/10/27 02:23:28;;;;;;;36.13;8.10;;;;;;;-145.69;100.00;73058.31;5158382;27;20238;-79
2021/10/27 02:25:54;;;;;;;32.10;8.17;;;;;;;-145.69;100.00;73058.31;5158559;27;20248;-78
2021/10/27 02:28:22;;;;;;;28.67;7.87;;;;;;;-145.69;100.00;73058.31;5158522;27;20192;-78
2021/10/27 02:30:49;;;;;;;27.27;10.65;;;;;;;-145.69;100.00;73062.28;5157431;27;20507;-78
2021/10/27 02:33:16;;;;;;;25.67;8.33;;;;;;;-145.69;100.00;73056.31;5158397;27;20196;-78
2021/10/27 02:35:42;;;;;;;18.40;7.23;;;;;;;-145.69;100.00;73052.34;5158211;27;20207;-78
2021/10/27 02:38:09;;;;;;;25.07;7.00;;;;;;;-145.69;100.00;73054.31;5157980;27;20192;-78
2021/10/27 02:40:35;;;;;;;22.77;6.17;;;;;;;-145.69;100.00;73058.31;5158398;27;20291;-79
2021/10/27 02:43:02;;;;;;;26.70;7.70;;;;;;;-145.69;100.00;73054.31;5158212;27;20224;-78
2021/10/27 02:45:30;;;;;;;21.97;7.47;;;;;;;-145.69;100.00;73058.31;5158175;27;20256;-78
2021/10/27 02:47:56;;;;;;;23.30;7.60;;;;;;;-145.69;100.00;73060.28;5158160;27;20200;-78
2021/10/27 02:50:23;;;;;;;22.53;8.10;;;;;;;-145.69;100.00;73066.25;5157902;27;20207;-79
2021/10/27 02:52:49;;;;;;;19.53;7.23;;;;;;;-145.69;100.00;73062.28;5157857;27;20285;-77
2021/10/27 02:55:16;;;;;;;24.27;7.17;;;;;;;-145.69;100.00;73066.25;5158128;27;20196;-78
2021/10/27 02:57:43;;;;;;;23.63;7.67;;;;;;;-145.69;100.00;73070.25;5158071;27;20222;-78
2021/10/27 03:00:10;;;;;;;21.93;7.07;;;;;;;-145.69;100.00;73060.28;5158113;27;20200;-78
2021/10/27 03:02:38;;;;;;;17.77;6.80;;;;;;;-145.69;100.00;73068.25;5157625;27;20630;-78
2021/10/27 03:05:06;;;;;;;24.03;6.53;;;;;;;-145.69;100.00;73062.28;5157785;27;20228;-78
2021/10/27 03:07:32;;;;;;;23.73;7.57;;;;;;;-145.69;100.00;73050.34;5157695;27;20200;-78
2021/10/27 03:09:59;;;;;;;27.17;7.37;;;;;;;-145.69;100.00;73056.31;5157515;27;20681;-78
2021/10/27 03:12:25;;;;;;;28.90;8.93;;;;;;;-145.69;100.00;73054.31;5157637;27;20245;-78
2021/10/27 03:14:52;;;;;;;28.07;8.40;;;;;;;-145.69;100.00;73040.38;5154121;27;20196;-78
2021/10/27 03:17:19;;;;;;;31.70;8.80;;;;;;;-145.69;100.00;73044.38;5157434;27;20230;-78
2021/10/27 03:19:47;;;;;;;21.43;6.67;;;;;;;-145.69;100.00;73064.28;5157476;27;20284;-78
2021/10/27 03:22:14;;;;;;;22.13;7.77;;;;;;;-145.69;100.00;73070.25;5157217;27;20662;-78
2021/10/27 03:24:40;;;;;;;25.67;7.10;;;;;;;-145.69;100.00;73058.31;5157478;27;20272;-78
2021/10/27 03:27:07;;;;;;;21.70;6.67;;;;;;;-145.69;100.00;73062.28;5156764;27;20628;-78
2021/10/27 03:29:33;;;;;;;25.03;6.60;;;;;;;-145.69;100.00;73066.25;5156461;27;20192;-77
2021/10/27 03:32:00;;;;;;;31.10;6.60;;;;;;;-145.69;100.00;73072.25;5157202;27;20195;-77
2021/10/27 03:34:27;;;;;;;23.23;6.80;;;;;;;-145.69;100.00;73074.22;5157073;27;20204;-77
2021/10/27 03:36:55;;;;;;;25.03;7.73;;;;;;;-145.69;100.00;73074.22;5157291;27;20196;-78
2021/10/27 03:39:21;;;;;;;21.87;7.17;;;;;;;-145.69;100.00;73076.22;5156956;27;20268;-77
2021/10/27 03:41:48;;;;;;;22.70;7.03;;;;;;;-145.69;100.00;73086.19;5157163;27;20275;-78
2021/10/27 03:44:15;;;;;;;18.90;6.63;;;;;;;-145.69;100.00;73090.16;5156945;27;20246;-78
2021/10/27 03:46:41;;;;;;;17.33;6.97;;;;;;;-145.69;100.00;73086.19;5156953;27;20199;-78
2021/10/27 03:49:07;;;;;;;19.50;7.13;;;;;;;-145.69;100.00;73080.19;5157154;27;20196;-79
2021/10/27 03:51:34;;;;;;;23.67;7.40;;;;;;;-145.69;100.00;73070.25;5156822;27;20227;-79
2021/10/27 03:54:02;;;;;;;27.13;7.17;;;;;;;-145.69;100.00;73076.22;5157006;27;20226;-78
2021/10/27 03:56:28;;;;;;;22.20;6.90;;;;;;;-145.69;100.00;73110.06;5156798;27;20241;-78
2021/10/27 03:58:55;;;;;;;20.17;6.33;;;;;;;-145.69;100.00;73118.03;5156724;27;20196;-78
2021/10/27 04:01:22;;;;;;;18.20;6.30;;;;;;;-145.69;100.00;73129.97;5156468;27;20199;-78
2021/10/27 04:03:48;;;;;;;18.83;6.37;;;;;;;-145.69;100.00;73120.00;5156698;27;20232;-79
2021/10/27 04:06:15;;;;;;;23.83;7.03;;;;;;;-145.69;100.00;73122.00;5156645;27;20196;-79
2021/10/27 04:08:41;;;;;;;22.33;6.43;;;;;;;-145.69;100.00;73137.94;5156718;27;20192;-79
2021/10/27 04:11:09;;;;;;;28.10;6.63;;;;;;;-145.69;100.00;73129.97;5156353;27;20646;-78
2021/10/27 04:13:37;;;;;;;25.57;6.77;;;;;;;-145.69;100.00;73141.91;5156363;27;20207;-79
2021/10/27 04:16:03;;;;;;;14.63;5.43;;;;;;;-145.69;100.00;73165.81;5156112;27;20222;-79
2021/10/27 04:18:30;;;;;;;13.90;5.23;;;;;;;-145.69;100.00;73185.72;5156275;27;20569;-79
2021/10/27 04:20:57;;;;;;;11.73;4.50;;;;;;;-145.69;100.00;73191.69;5156335;27;20196;-79
2021/10/27 04:23:23;;;;;;;18.53;4.90;;;;;;;-145.69;100.00;73187.69;5156171;27;20196;-78
2021/10/27 04:25:50;;;;;;;21.07;6.50;;;;;;;-145.69;100.00;73149.88;5156087;27;20220;-79
2021/10/27 04:28:17;;;;;;;23.17;5.77;;;;;;;-145.69;100.00;73143.91;5156032;27;20244;-79
2021/10/27 04:30:45;;;;;;;24.30;6.17;;;;;;;-145.69;100.00;73149.88;5155967;27;20196;-78
2021/10/27 04:33:16;;;;;;;21.60;6.67;;;;;;;-145.69;100.00;73139.91;5155995;27;20256;-79
2021/10/27 04:35:45;;;;;;;19.63;5.73;;;;;;;-145.69;100.00;73147.88;5155792;27;20226;-79
2021/10/27 04:38:11;;;;;;;16.87;6.10;;;;;;;-145.69;100.00;73143.91;5155746;27;20196;-78
2021/10/27 04:40:39;;;;;;;21.57;6.43;;;;;;;-145.69;100.00;73122.00;5155373;27;20272;-78
2021/10/27 04:43:05;;;;;;;25.07;6.70;;;;;;;-145.69;100.00;73122.00;5155618;27;20746;-78
2021/10/27 04:45:34;;;;;;;33.43;7.43;;;;;;;-145.69;100.00;73143.91;5155914;27;20224;-79
2021/10/27 04:48:00;;;;;;;20.30;6.50;;;;;;;-145.69;100.00;73139.91;5155682;27;20203;-78
2021/10/27 04:50:26;;;;;;;20.73;6.20;;;;;;;-145.69;100.00;73165.81;5155801;27;20203;-77
2021/10/27 04:52:53;;;;;;;15.87;5.17;;;;;;;-145.69;100.00;73185.72;5155526;27;20268;-77
2021/10/27 04:55:19;;;;;;;13.03;5.50;;;;;;;-145.69;100.00;73193.66;5155491;27;20256;-77
2021/10/27 04:57:47;;;;;;;16.07;5.37;;;;;;;-145.69;100.00;73203.63;5155510;27;20208;-78
2021/10/27 05:00:14;;;;;;;18.80;5.67;;;;;;;-145.69;100.00;73199.66;5155327;27;20733;-78
2021/10/27 05:02:42;;;;;;;19.90;6.13;;;;;;;-145.69;100.00;73201.63;5155598;27;20246;-78
2021/10/27 05:05:09;;;;;;;21.57;6.00;;;;;;;-145.69;100.00;73185.72;5155324;27;20281;-78
2021/10/27 05:07:36;;;;;;;19.37;6.03;;;;;;;-145.69;100.00;73181.72;5151989;27;20197;-78
2021/10/27 05:10:04;;;;;;;17.20;5.60;;;;;;;-145.69;100.00;73209.59;5155147;27;20200;-78
2021/10/27 05:12:30;;;;;;;21.17;6.03;;;;;;;-145.69;100.00;73179.75;5155264;27;20208;-77
2021/10/27 05:14:56;;;;;;;26.67;6.87;;;;;;;-145.69;100.00;73201.63;5155249;27;20208;-78
2021/10/27 05:17:23;;;;;;;16.63;5.40;;;;;;;-145.69;100.00;73211.59;5155345;27;20580;-78
2021/10/27 05:19:51;;;;;;;14.97;5.90;;;;;;;-145.69;100.00;73219.56;5155407;27;20196;-77
2021/10/27 05:22:18;;;;;;;15.67;5.47;;;;;;;-145.69;100.00;73189.69;5155202;27;20196;-78
2021/10/27 05:24:45;;;;;;;19.50;6.00;;;;;;;-145.69;100.00;73177.75;5154749;27;20228;-78
2021/10/27 05:27:12;;;;;;;15.20;5.33;;;;;;;-145.69;100.00;73185.72;5155200;27;20604;-77
2021/10/27 05:29:38;;;;;;;11.17;4.53;;;;;;;-145.69;100.00;73221.53;5155120;27;20200;-77
2021/10/27 05:32:06;;;;;;;17.83;5.13;;;;;;;-145.69;100.00;73231.50;5155132;27;20196;-78
2021/10/27 05:34:33;;;;;;;13.30;4.80;;;;;;;-145.69;100.00;73245.44;5155146;27;20607;-78
2021/10/27 05:37:01;;;;;;;10.97;3.67;;;;;;;-145.69;100.00;73269.31;5155001;27;20204;-78
2021/10/27 05:39:27;;;;;;;12.70;4.13;;;;;;;-145.69;100.00;73289.22;5154849;27;20204;-78
2021/10/27 05:41:54;;;;;;;14.60;5.40;;;;;;;-145.69;100.00;73233.50;5155125;27;20236;-78
2021/10/27 05:44:21;;;;;;;28.53;6.07;;;;;;;-145.69;100.00;73201.63;5155108;27;20228;-78
2021/10/27 05:46:50;;;;;;;23.23;6.43;;;;;;;-145.69;100.00;73175.75;5154913;27;20199;-78
2021/10/27 05:49:22;;;;;;;25.20;7.63;;;;;;;-145.69;100.00;73169.78;5154936;27;20196;-78
2021/10/27 05:51:52;;;;;;;14.90;5.50;;;;;;;-145.69;100.00;73193.66;5156637;27;20262;-78
2021/10/27 05:57:04;;;;;;;18.53;5.93;;;;;;;-145.69;100.00;73189.69;5159221;27;20219;-78
2021/10/27 05:59:31;;;;;;;24.73;6.43;;;;;;;-145.69;100.00;73173.75;5158776;27;20287;-78
2021/10/27 06:01:57;;;;;;;15.93;6.63;;;;;;;-145.69;100.00;73171.78;5158730;27;20654;-78
2021/10/27 06:04:24;;;;;;;27.27;6.00;;;;;;;-145.69;100.00;73185.72;5158543;27;20247;-79
2021/10/27 06:06:50;;;;;;;17.30;5.33;;;;;;;-145.69;100.00;73207.59;5159075;27;20207;-78
2021/10/27 06:09:17;;;;;;;17.57;5.60;;;;;;;-145.69;100.00;73209.59;5158851;27;20196;-78
2021/10/27 06:11:45;;;;;;;17.60;5.83;;;;;;;-145.69;100.00;73189.69;5158658;27;20550;-78
2021/10/27 06:14:12;;;;;;;22.07;6.53;;;;;;;-145.69;100.00;73193.66;5158455;27;20249;-78
2021/10/27 06:16:39;;;;;;;31.03;9.10;;;;;;;-145.69;100.00;73173.75;5158190;27;20199;-78
2021/10/27 06:19:06;;;;;;;24.90;8.93;;;;;;;-145.69;100.00;73163.81;5158310;27;20562;-78
2021/10/27 06:21:33;;;;;;;28.37;8.90;;;;;;;-145.69;100.00;73169.78;5158660;27;20301;-78
2021/10/27 06:24:00;;;;;;;21.13;7.63;;;;;;;-145.69;100.00;73167.78;5158378;27;20558;-78
2021/10/27 06:26:27;;;;;;;28.27;8.93;;;;;;;-145.69;100.00;73153.84;5158563;27;20196;-78
2021/10/27 06:29:00;;;;;;;29.33;9.30;;;;;;;-145.69;100.00;73145.91;5158353;27;20554;-79
2021/10/27 06:31:32;;;;;;;32.27;7.97;;;;;;;-145.69;100.00;73133.94;5158221;27;20196;-79
2021/10/27 06:34:04;;;;;;;36.93;9.60;;;;;;;-145.69;100.00;73127.97;5158420;27;20204;-79
2021/10/27 06:36:38;;;;;;;36.13;10.33;;;;;;;-145.69;100.00;73118.03;5158450;27;20249;-79
2021/10/27 06:47:25;;;;;;;39.10;11.20;;;;;;;-145.69;100.00;73088.16;5157852;27;20206;-78
2021/10/27 06:49:52;;;;;;;38.57;11.87;;;;;;;-145.69;100.00;73070.25;5157830;27;20261;-78
2021/10/27 06:52:18;;;;;;;35.47;11.50;;;;;;;-145.69;100.00;73074.22;5157573;27;20235;-78
2021/10/27 06:54:49;;;;;;;35.10;11.20;;;;;;;-145.69;100.00;73042.38;5158038;27;20203;-78
2021/10/27 06:57:16;;;;;;;35.57;11.40;;;;;;;-145.69;100.00;73018.50;5157780;27;20196;-77
2021/10/27 06:59:44;;;;;;;40.47;11.10;;;;;;;-145.69;100.00;73010.53;5154218;27;20646;-77
2021/10/27 07:02:36;;;;;;;44.10;10.83;;;;;;;-145.69;100.00;73016.50;5157394;27;20288;-78
2021/10/27 07:05:14;;;;;;;32.13;10.43;;;;;;;-145.69;100.00;73032.44;5157588;27;20235;-78
2021/10/27 07:16:13;;;;;;;45.33;11.53;;;;;;;-145.69;100.00;73010.53;5136789;27;20226;-77
2021/10/27 07:18:40;;;;;;;40.13;10.50;;;;;;;-145.69;100.00;73004.56;5157608;27;20436;-78
2021/10/27 07:21:06;;;;;;;28.27;9.90;;;;;;;-145.69;100.00;72994.59;5157498;27;20714;-78
2021/10/27 07:23:33;;;;;;;45.83;11.30;;;;;;;-145.69;100.00;72974.69;5157282;27;20196;-78
2021/10/27 07:26:00;;;;;;;54.90;12.60;;;;;;;-145.69;100.00;72968.72;5157342;27;20263;-78
2021/10/27 07:28:30;;;;;;;46.87;12.30;;;;;;;-145.69;100.00;72950.81;5157478;27;20200;-78
2021/10/27 07:30:58;;;;;;;48.77;12.17;;;;;;;-145.69;100.00;72938.88;5157505;27;20196;-78
2021/10/27 07:33:27;;;;;;;59.40;12.23;;;;;;;-145.69;100.00;72926.91;5157136;27;20192;-78
2021/10/27 07:35:57;;;;;;;61.27;12.50;;;;;;;-145.69;100.00;72903.03;5157129;27;20661;-78
2021/10/27 07:41:08;;;;;;;59.93;13.73;;;;;;;-145.69;100.00;72891.09;5156854;27;20191;-78
2021/10/27 07:43:35;;;;;;;72.03;17.13;;;;;;;-145.69;100.00;72863.22;5156916;27;20204;-78
2021/10/27 07:46:03;;;;;;;66.23;16.83;;;;;;;-145.69;100.00;72857.25;5156785;27;20232;-78
2021/10/27 07:48:31;;;;;;;70.03;15.63;;;;;;;-145.69;100.00;72855.25;5156715;27;20661;-77
2021/10/27 07:50:58;;;;;;;93.50;18.67;;;;;;;-145.69;100.00;72839.34;5156690;27;20668;-78
2021/10/27 07:53:27;;;;;;;81.77;18.03;;;;;;;-145.69;100.00;72837.34;5156227;27;20224;-79
2021/10/27 07:55:54;;;;;;;88.30;16.90;;;;;;;-145.69;100.00;72829.38;5156539;27;20206;-78
2021/10/27 07:58:22;;;;;;;86.13;18.50;;;;;;;-145.69;100.00;72827.38;5156669;27;20203;-78
2021/10/27 08:00:49;;;;;;;93.87;18.53;;;;;;;-145.69;100.00;72807.47;5156390;27;20277;-77
2021/10/27 08:03:18;;;;;;;90.43;19.30;;;;;;;-145.69;100.00;72793.56;5156541;27;20659;-78
2021/10/27 08:05:47;;;;;;;102.13;19.83;;;;;;;-145.69;100.00;72781.59;5156382;27;20255;-78
2021/10/27 08:08:15;;;;;;;95.77;19.40;;;;;;;-145.69;100.00;72767.69;5156366;27;20196;-78
2021/10/27 08:10:42;;;;;;;101.67;20.97;;;;;;;-145.69;100.00;72767.69;5156340;27;20196;-78
2021/10/27 08:13:10;;;;;;;99.90;19.83;;;;;;;-145.69;100.00;72747.78;5156092;27;20202;-78
2021/10/27 08:15:37;;;;;;;96.77;19.63;;;;;;;-145.69;100.00;72747.78;5155430;27;20287;-77
2021/10/27 08:18:09;;;;;;;89.47;20.27;;;;;;;-145.69;100.00;72729.84;5156145;27;20302;-79
2021/10/27 08:20:36;;;;;;;86.37;18.87;;;;;;;-145.69;100.00;72739.81;5156141;27;20196;-80
2021/10/27 08:23:07;;;;;;;81.17;16.97;;;;;;;-145.69;100.00;72727.88;5155931;27;20200;-81
2021/10/27 08:25:43;;;;;;;84.33;17.90;;;;;;;-145.69;100.00;72719.91;5155862;27;20231;-81
2021/10/27 08:28:16;;;;;;;78.47;17.20;;;;;;;-145.69;100.00;72713.94;5155661;27;20239;-81
2021/10/27 08:30:49;;;;;;;88.77;18.00;;;;;;;-145.69;100.00;72703.97;5155978;27;20200;-81
2021/10/27 08:33:22;;;;;;;88.50;17.60;;;;;;;-145.69;100.00;72703.97;5155764;27;20192;-81
2021/10/27 08:35:50;;;;;;;80.43;18.00;;;;;;;-145.69;100.00;72707.97;5155761;27;20207;-80
2021/10/27 08:38:17;;;;;;;68.70;15.50;;;;;;;-145.69;100.00;72703.97;5155477;27;20252;-79
2021/10/27 08:40:44;;;;;;;72.47;17.37;;;;;;;-145.69;100.00;72698.00;5155543;27;20214;-80
2021/10/27 08:43:12;;;;;;;68.30;16.77;;;;;;;-145.69;100.00;72678.09;5155584;27;20196;-80
2021/10/27 08:45:39;;;;;;;64.93;15.40;;;;;;;-145.69;100.00;72672.13;5155500;27;20234;-79
2021/10/27 08:48:08;;;;;;;77.37;16.73;;;;;;;-145.69;100.00;72672.13;5155584;27;20196;-79
2021/10/27 08:50:35;;;;;;;64.07;15.87;;;;;;;-145.69;100.00;72666.16;5155392;27;20562;-80
2021/10/27 08:53:03;;;;;;;58.97;16.30;;;;;;;-145.69;100.00;72662.19;5151466;27;20279;-79
2021/10/27 08:55:32;;;;;;;55.43;15.43;;;;;;;-145.69;100.00;72652.22;5155310;27;20290;-79
2021/10/27 08:58:00;;;;;;;59.43;15.03;;;;;;;-145.69;100.00;72642.28;5155216;27;20663;-79
2021/10/27 09:00:30;;;;;;;57.13;15.13;;;;;;;-145.69;100.00;72638.28;5155085;27;20650;-80
2021/10/27 09:03:20;;;;;;;48.33;14.30;;;;;;;-145.69;100.00;72636.31;5155248;27;20200;-79
2021/10/27 09:06:04;;;;;;;50.90;14.53;;;;;;;-145.69;100.00;72636.31;5155231;27;20250;-79
2021/10/27 09:15:10;;;;;;;40.87;13.10;;;;;;;-145.69;100.00;72610.44;5130785;27;20689;-79
2021/10/27 09:34:34;;;;;;;30.77;11.53;;;;;;;-145.69;100.00;72520.84;5133251;27;20252;-80
2021/10/27 09:42:41;;;;;;;26.57;9.90;;;;;;;-145.69;100.00;72496.97;5131755;28;20206;-79
2021/10/27 09:56:56;;;;;;;22.50;9.17;;;;;;;-145.69;100.00;72447.22;5110204;27;20197;-78
2021/10/27 10:05:03;;;;;;;26.10;9.97;;;;;;;-145.69;100.00;72417.34;5133283;28;20195;-83
2021/10/27 10:07:30;;;;;;;19.63;9.20;;;;;;;-145.69;100.00;72405.41;5133735;27;20254;-81
2021/10/27 10:09:57;;;;;;;22.27;9.63;;;;;;;-145.69;100.00;72397.44;5133361;28;20201;-81
2021/10/27 10:12:27;;;;;;;24.63;9.67;;;;;;;-145.69;100.00;72371.56;5133387;28;20193;-81
2021/10/27 10:14:56;;;;;;;18.57;8.83;;;;;;;-145.69;100.00;72355.66;5133631;28;20201;-81
2021/10/27 10:17:25;;;;;;;19.63;8.67;;;;;;;-145.69;100.00;72353.66;5133657;28;20193;-81
2021/10/27 10:19:52;;;;;;;18.77;9.70;;;;;;;-145.69;100.00;72333.75;5133558;28;20270;-80
2021/10/27 10:22:33;;;;;;;20.90;8.97;;;;;;;-145.69;100.00;72313.84;5133478;28;20192;-80
2021/10/27 10:25:31;;;;;;;18.80;8.53;;;;;;;-145.69;100.00;72301.91;5133567;28;20188;-81
2021/10/27 10:28:14;;;;;;;18.63;9.33;;;;;;;-145.69;100.00;72295.94;5133619;28;20239;-81
2021/10/27 10:30:45;;;;;;;18.73;9.27;;;;;;;-145.69;100.00;72287.97;5133499;28;20205;-81
2021/10/27 10:33:15;;;;;;;18.67;9.20;;;;;;;-145.69;100.00;72276.03;5132385;28;20433;-81
2021/10/27 10:35:50;;;;;;;21.73;8.77;;;;;;;-145.69;100.00;72270.06;5133477;28;20201;-81
2021/10/27 10:38:28;;;;;;;19.00;8.30;;;;;;;-145.69;100.00;72270.06;5136165;27;20196;-81
2021/10/27 11:23:50;;;;;;;8.05;4.57;;;;;;;-145.69;98.91;72075.03;5157047;27;20233;-83
2021/10/27 11:37:42;;;;;;;6.10;3.10;;;;;;;-145.69;90.13;72029.25;5156866;27;20554;-82
2021/10/27 11:40:27;;;;;;;6.97;3.20;;;;;;;-145.69;89.46;72025.28;5156874;27;20197;-82
2021/10/27 11:42:56;;;;;;;9.95;3.20;;;;;;;-145.69;87.74;72015.31;5156746;27;20203;-82
2021/10/27 11:45:36;;;;;;;6.20;3.60;;;;;;;-145.69;92.68;72011.34;5156589;27;20616;-81
2021/10/27 11:48:07;;;;;;;13.25;2.63;;;;;;;-145.69;85.22;71989.44;5156109;27;20200;-82
2021/10/27 11:50:36;;;;;;;6.13;2.28;;;;;;;-145.69;82.10;71973.53;5155989;27;20196;-82
2021/10/27 11:53:05;;;;;;;5.50;2.50;;;;;;;-145.69;82.70;71959.59;5156071;27;20235;-82
2021/10/27 11:55:37;;;;;;;7.45;2.80;;;;;;;-145.69;89.39;71945.66;5156364;27;20266;-82
2021/10/27 11:58:04;;;;;;;8.50;3.10;;;;;;;-145.69;84.81;71961.59;5156449;27;20562;-82
2021/10/27 12:00:34;;;;;;;6.47;2.95;;;;;;;-145.69;87.19;71931.72;5156039;27;20196;-82
2021/10/27 12:03:06;;;;;;;8.82;2.70;;;;;;;-145.69;87.83;71919.78;5156377;27;20200;-81
2021/10/27 12:05:39;;;;;;;4.93;2.25;;;;;;;-145.69;80.27;71903.88;5155936;27;20720;-80
2021/10/27 12:08:16;;;;;;;5.10;2.03;;;;;;;-145.69;82.43;71917.81;5156062;27;20674;-80
2021/10/27 12:10:58;;;;;;;6.47;2.73;;;;;;;-145.69;79.66;71903.88;5155974;27;20282;-80
2021/10/27 12:13:40;;;;;;;6.13;2.65;;;;;;;-145.69;82.63;71897.91;5156005;27;20432;-80
2021/10/27 12:16:37;;;;;;;7.80;2.92;;;;;;;-145.69;77.92;71887.94;5155986;27;20296;-80
2021/10/27 12:19:06;;;;;;;6.10;2.35;;;;;;;-145.69;82.34;71876.00;5155874;27;20714;-83
2021/10/27 12:21:34;;;;;;;6.88;2.60;;;;;;;-145.69;77.61;71862.06;5155803;27;20220;-83
2021/10/27 12:24:02;;;;;;;8.98;2.67;;;;;;;-145.69;77.79;71852.13;5155669;27;20192;-82
2021/10/27 12:26:41;;;;;;;7.63;3.03;;;;;;;-145.69;79.06;71826.25;5155675;27;20227;-83
2021/10/27 12:29:11;;;;;;;8.98;3.38;;;;;;;-145.69;77.26;71832.22;5155839;27;20562;-83
2021/10/27 12:31:39;;;;;;;7.75;2.92;;;;;;;-145.69;77.27;71836.22;5155612;27;20204;-81
2021/10/27 12:34:19;;;;;;;6.63;2.90;;;;;;;-145.69;76.02;71832.22;5155481;27;20199;-78
2021/10/27 12:36:46;;;;;;;5.18;2.60;;;;;;;-145.69;74.84;71836.22;5155306;27;20200;-79
2021/10/27 12:39:17;;;;;;;6.18;2.72;;;;;;;-145.69;76.19;71814.31;5155646;27;20195;-79
2021/10/27 12:42:00;;;;;;;5.75;2.55;;;;;;;-145.69;77.40;71778.50;5155546;27;20291;-82
2021/10/27 12:44:27;;;;;;;4.78;2.50;;;;;;;-145.69;73.99;71762.56;5155162;27;20194;-81
2021/10/27 12:47:07;;;;;;;4.68;2.50;;;;;;;-145.69;75.68;71742.69;5155424;27;20227;-81
2021/10/27 12:49:33;;;;;;;8.65;2.50;;;;;;;-145.69;75.35;71738.69;5151760;27;20203;-81
2021/10/27 12:52:19;;;;;;;6.70;3.40;;;;;;;-145.69;73.20;71726.75;5155112;27;20224;-81
2021/10/27 12:54:46;;;;;;;6.88;3.05;;;;;;;-145.69;74.88;71708.84;5154939;27;20650;-81
2021/10/27 12:57:14;;;;;;;7.32;3.17;;;;;;;-145.69;73.88;71696.91;5155033;27;20205;-80
2021/10/27 12:59:40;;;;;;;8.40;3.33;;;;;;;-145.69;70.47;71704.88;5155015;27;20196;-80
2021/10/27 13:02:15;;;;;;;7.53;4.75;;;;;;;-145.69;80.49;71734.72;5155067;27;20196;-81
2021/10/27 13:04:48;;;;;;;7.80;3.80;;;;;;;-145.69;73.78;71714.81;5154905;27;20676;-81
2021/10/27 13:07:19;;;;;;;9.55;4.32;;;;;;;-145.69;76.60;71704.88;5153623;27;20600;-81
2021/10/27 13:10:19;;;;;;;10.23;5.03;;;;;;;-145.69;80.32;71704.88;5154051;27;20670;-81
2021/10/27 13:12:59;;;;;;;7.40;3.42;;;;;;;-145.69;76.32;71690.94;5154996;27;20192;-81